Date,TemperatureHighF,TemperatureAvgF,TemperatureLowF,DewpointHighF,DewpointAvgF,DewpointLowF,HumidityHigh,HumidityAvg,HumidityLow,PressureMaxIn,PressureMinIn,WindSpeedMaxMPH,WindSpeedAvgMPH,GustSpeedMaxMPH,PrecipitationSumIn
2013-1-1,42.0,38.6,30.8,31.7,28.2,18.7,77,66,56,29.99,29.81,9,5,13,0.00
2013-1-2,33.4,28.6,25.2,19.3,16.7,13.7,69,61,53,30.16,29.96,11,6,17,0.00
2013-1-3,34.1,28.9,24.8,21.0,18.6,17.5,76,65,51,30.17,30.06,6,3,10,0.00
2013-1-4,37.5,33.5,27.8,24.5,23.2,20.9,77,66,58,30.10,29.96,9,4,17,0.00
2013-1-5,41.4,34.4,28.3,25.8,23.6,20.6,75,65,52,30.28,30.01,8,3,13,0.00
2013-1-6,47.3,38.4,32.8,36.0,31.2,24.9,95,76,55,30.22,29.96,6,1,11,0.09
2013-1-7,47.7,39.5,30.8,32.6,29.2,25.1,85,67,46,30.39,30.04,9,3,11,0.00
2013-1-8,50.2,38.2,29.6,35.3,31.3,25.9,92,77,55,30.42,30.33,4,1,10,0.00
2013-1-9,52.3,43.7,33.4,43.3,37.8,31.7,95,80,58,30.37,30.12,7,1,9,0.00
2013-1-10,49.5,44.2,38.1,34.7,29.6,27.0,74,57,42,30.51,30.24,11,4,13,0.00
2013-1-11,46.9,44.1,39.2,45.8,39.2,31.6,97,83,68,30.50,30.04,12,4,13,0.82
2013-1-12,52.7,46.0,43.7,49.8,45.1,42.9,98,97,86,30.15,30.02,7,3,11,0.00
2013-1-13,49.2,45.1,41.5,48.7,44.4,41.0,98,97,94,30.13,29.98,5,2,8,0.01
2013-1-14,59.2,51.0,41.7,56.2,46.4,34.9,99,85,52,30.25,29.92,9,3,14,1.47
2013-1-15,41.3,39.0,37.2,39.1,33.3,30.2,93,80,69,30.31,30.17,8,5,13,0.93
2013-1-16,42.2,38.2,35.8,41.1,36.7,33.8,97,94,85,30.18,29.75,13,5,16,0.87
2013-1-17,42.7,39.6,37.0,36.8,33.7,31.0,94,80,64,30.07,29.91,8,3,10,0.02
2013-1-18,38.1,31.4,27.1,31.5,18.2,9.6,78,59,40,30.49,29.96,13,6,18,0.00
2013-1-19,52.9,40.4,28.9,36.3,27.1,16.4,80,60,39,30.41,29.93,7,3,12,0.00
2013-1-20,55.6,45.2,33.0,33.6,27.4,16.3,70,51,30,30.02,29.69,12,6,16,0.00
2013-1-21,34.4,30.1,26.0,26.5,18.0,11.4,94,62,46,30.08,29.80,8,3,11,0.00
2013-1-22,25.7,19.9,14.3,21.3,5.2,-1.0,83,53,41,30.21,29.82,13,9,19,0.00
2013-1-23,19.7,15.0,11.1,7.8,2.7,-1.0,78,58,44,30.25,30.16,11,5,14,0.00
2013-1-24,24.2,18.2,12.1,8.2,4.4,-1.6,79,56,33,30.40,30.10,14,7,22,0.00
2013-1-25,24.3,18.1,13.2,17.7,8.3,0.7,91,67,48,30.41,30.04,8,3,12,0.00
2013-1-26,27.8,20.6,14.1,14.1,11.5,8.9,91,69,47,30.35,30.03,11,6,15,0.00
2013-1-27,34.3,25.0,15.5,18.1,13.6,8.4,76,62,45,30.51,30.35,11,4,16,0.00
2013-1-28,36.1,30.6,23.2,34.7,26.4,15.6,95,85,69,30.48,29.99,4,1,7,0.11
2013-1-29,51.6,41.8,35.1,45.1,39.6,33.8,96,92,74,30.12,29.98,6,2,11,0.00
2013-1-30,56.5,49.3,42.8,54.5,48.1,42.0,98,96,88,30.04,29.39,11,5,20,0.04
2013-1-31,57.9,44.7,30.3,57.3,33.8,13.2,98,68,40,29.81,29.10,15,9,26,0.67
2013-2-1,31.6,28.5,23.8,20.6,12.9,8.0,75,52,39,30.23,29.82,15,6,24,0.00
2013-2-2,31.6,24.8,18.5,22.0,11.2,6.8,90,57,35,30.30,30.04,8,3,14,0.00
2013-2-3,31.3,26.9,23.0,25.0,22.6,19.5,93,84,69,30.03,29.77,7,2,10,0.00
2013-2-4,29.9,26.5,22.6,23.9,15.5,11.8,91,64,48,29.99,29.81,10,5,22,0.00
2013-2-5,38.7,32.3,26.9,36.9,30.1,23.4,94,92,86,29.95,29.86,7,3,12,0.01
2013-2-6,39.2,34.3,29.7,32.9,25.8,16.6,94,73,52,30.34,29.88,12,5,15,0.00
2013-2-7,40.6,31.9,26.4,36.1,20.8,12.6,84,63,52,30.47,30.26,9,5,12,0.00
2013-2-8,42.2,37.7,29.3,40.4,36.1,28.6,97,94,85,30.26,29.57,34,14,34,1.02
2013-2-9,33.9,28.7,22.4,29.3,20.3,10.4,97,73,43,30.31,29.71,18,10,21,0.00
2013-2-10,33.4,25.9,17.3,28.8,16.8,9.6,85,69,44,30.47,30.30,8,3,12,0.00
2013-2-11,53.6,44.8,33.5,52.5,43.1,28.9,98,93,83,30.32,29.62,11,3,15,0.37
2013-2-12,47.5,41.7,32.8,44.1,29.7,25.6,92,63,47,29.95,29.71,16,7,29,0.00
2013-2-13,39.9,34.9,28.9,32.7,28.9,24.1,96,79,64,29.94,29.65,7,3,9,0.14
2013-2-14,44.1,36.5,32.2,36.3,33.5,30.7,96,89,62,30.00,29.67,8,3,10,0.08
2013-2-15,50.0,40.9,32.9,41.9,36.2,31.5,96,84,67,30.01,29.90,7,2,10,0.01
2013-2-16,44.3,36.9,32.1,35.1,30.4,21.2,91,78,61,29.92,29.69,15,8,16,0.00
2013-2-17,32.0,28.4,20.2,22.2,10.4,3.2,69,47,35,30.00,29.64,20,13,29,0.00
2013-2-18,36.1,26.2,18.1,16.9,8.8,2.8,60,48,36,30.25,29.99,17,7,25,0.00
2013-2-19,47.1,40.0,29.2,45.3,34.6,16.4,96,81,58,30.20,29.66,12,4,19,0.21
2013-2-20,39.2,31.3,25.9,30.6,17.3,11.7,71,56,46,29.99,29.72,14,9,21,0.00
2013-2-21,35.6,29.1,23.9,19.1,15.8,12.2,67,58,47,30.24,29.97,17,10,26,0.00
2013-2-22,39.5,32.2,24.8,36.8,26.3,16.7,90,79,67,30.36,30.23,9,5,11,0.01
2013-2-23,42.7,40.8,37.9,41.9,39.6,36.8,97,96,90,30.24,29.75,15,7,19,0.62
2013-2-24,48.6,39.6,33.0,39.7,33.4,23.6,97,80,56,29.96,29.71,14,8,22,0.01
2013-2-25,42.8,36.8,30.4,33.1,28.5,23.3,79,72,60,30.21,29.97,8,4,12,0.00
2013-2-26,42.7,37.6,29.8,39.6,33.3,26.8,96,85,74,30.25,29.80,20,9,27,0.15
2013-2-27,57.5,47.5,40.8,52.9,43.5,39.0,99,87,58,29.81,29.46,18,8,22,7.13
2013-2-28,49.2,44.0,37.8,42.3,36.1,29.6,92,74,60,29.61,29.52,8,3,13,0.01
2013-3-1,44.2,39.5,34.0,33.0,30.6,28.0,89,71,54,29.75,29.59,10,6,17,0.00
2013-3-2,41.0,36.3,31.3,28.3,25.8,24.2,76,66,56,29.76,29.67,11,6,14,0.00
2013-3-3,37.6,32.8,29.7,24.5,21.8,19.7,76,64,53,29.74,29.65,11,8,16,0.00
2013-3-4,42.2,34.5,27.6,23.9,21.3,17.9,70,59,46,29.89,29.74,16,10,22,0.00
2013-3-5,42.7,36.8,30.5,35.7,28.0,22.5,91,71,57,30.00,29.89,12,5,14,0.00
2013-3-6,40.9,39.5,36.3,37.7,35.6,32.6,94,86,80,29.93,29.71,43,19,43,0.00
2013-3-7,38.5,35.7,33.3,35.2,33.1,31.0,96,90,78,30.04,29.83,21,12,23,1.40
2013-3-8,42.0,34.9,31.5,35.4,32.3,30.5,96,91,71,30.13,29.96,12,9,20,0.10
2013-3-9,54.6,42.9,34.5,37.3,28.5,20.1,94,60,26,30.29,30.12,12,7,16,0.00
2013-3-10,39.2,37.0,30.9,36.9,34.0,29.6,96,89,83,30.37,30.28,8,4,9,0.00
2013-3-11,47.6,43.1,35.1,46.1,41.4,33.9,98,94,84,30.29,30.07,8,3,10,0.00
2013-3-12,54.4,48.7,45.9,54.1,47.1,42.2,99,94,84,30.08,29.66,12,6,18,0.88
2013-3-13,51.0,43.7,38.3,41.9,32.6,26.4,86,67,39,29.88,29.78,11,5,16,0.00
2013-3-14,41.3,35.9,30.7,27.4,18.4,13.9,67,50,34,29.95,29.84,17,9,22,0.00
2013-3-15,49.8,38.9,29.3,28.9,21.1,12.7,60,49,40,29.98,29.70,9,4,14,0.00
2013-3-16,42.9,36.4,32.6,33.2,29.7,24.1,95,78,56,29.89,29.74,9,4,12,0.08
2013-3-17,38.4,34.1,29.7,32.1,24.0,18.4,94,68,49,30.27,29.89,13,5,15,0.06
2013-3-18,39.6,35.8,31.9,38.6,28.0,16.6,96,74,51,30.36,29.92,19,11,23,0.62
2013-3-19,48.3,41.5,38.2,39.3,36.3,20.3,96,84,43,29.92,29.67,15,8,22,0.55
2013-3-20,47.7,39.9,32.1,28.0,21.3,18.7,65,48,33,29.89,29.77,11,5,19,0.00
2013-3-21,41.5,33.3,29.1,28.7,24.7,16.6,92,71,48,29.79,29.63,11,5,14,0.00
2013-3-22,41.6,34.1,27.1,24.1,20.7,16.1,72,58,43,29.88,29.73,12,6,18,0.00
2013-3-23,46.2,38.3,30.1,25.8,22.4,20.1,71,54,38,29.91,29.80,13,6,22,0.00
2013-3-24,43.7,38.0,30.4,30.8,24.8,19.8,73,59,44,29.93,29.68,12,5,16,0.00
2013-3-25,39.4,36.3,32.5,34.9,33.0,29.8,97,88,69,29.68,29.41,19,10,28,0.68
2013-3-26,48.8,41.4,33.3,37.5,33.4,30.9,97,75,51,29.84,29.56,8,3,11,0.11
2013-3-27,50.4,43.3,35.7,32.5,29.9,24.9,75,60,39,29.96,29.84,10,6,17,0.00
2013-3-28,48.4,43.0,34.7,34.4,31.5,29.2,83,64,50,30.08,29.94,9,6,16,0.00
2013-3-29,53.6,45.4,37.2,35.6,30.6,28.3,77,57,39,30.13,30.03,11,5,15,0.00
2013-3-30,52.8,44.5,37.6,39.6,33.9,26.5,83,67,37,30.16,30.06,11,4,12,0.00
2013-3-31,50.5,44.7,37.7,47.8,39.1,29.9,97,81,59,30.12,29.66,12,4,18,0.49
2013-4-1,64.5,51.1,40.7,48.0,40.5,18.9,96,70,40,29.88,29.59,16,4,21,0.01
2013-4-2,44.1,38.3,30.0,19.6,17.1,14.2,60,42,31,30.07,29.88,13,6,22,0.00
2013-4-3,45.8,39.2,32.1,20.5,16.8,12.8,54,41,30,30.27,30.07,14,7,17,0.00
2013-4-4,44.3,38.5,30.4,33.5,24.2,13.8,72,57,38,30.38,30.08,9,4,15,0.00
2013-4-5,59.6,45.6,37.5,41.2,33.7,24.4,94,67,27,30.08,29.69,16,5,18,0.23
2013-4-6,46.2,40.3,36.0,32.1,25.3,17.1,76,56,37,30.30,29.96,13,6,22,0.00
2013-4-7,52.5,44.5,36.7,47.3,38.5,31.3,87,79,69,30.30,30.00,11,4,18,0.00
2013-4-8,62.3,54.1,48.5,50.3,46.9,44.7,93,77,59,30.06,29.95,6,2,9,0.00
2013-4-9,83.4,67.0,48.9,55.3,50.4,44.0,94,61,26,29.97,29.88,15,5,19,0.00
2013-4-10,68.7,58.0,49.7,58.2,50.5,46.3,96,77,63,29.92,29.75,12,4,23,0.25
2013-4-11,59.0,52.2,46.0,58.2,51.1,43.8,98,96,92,29.99,29.74,13,6,17,0.06
2013-4-12,46.2,43.9,42.8,44.0,43.3,42.3,98,97,91,29.97,29.65,16,12,22,0.91
2013-4-13,52.2,46.3,41.8,45.7,43.0,37.3,98,89,58,29.96,29.69,10,4,13,0.15
2013-4-14,59.9,51.3,43.5,47.4,39.7,29.8,97,69,35,30.18,29.95,12,4,20,0.00
2013-4-15,49.7,46.8,45.5,44.6,40.1,34.4,91,78,63,30.35,30.17,12,6,19,0.00
2013-4-16,61.5,53.7,47.1,55.1,50.0,44.3,93,87,77,30.34,30.12,10,5,13,0.00
2013-4-17,59.2,56.5,51.9,56.6,49.5,39.6,96,78,60,30.26,30.08,10,3,13,0.01
2013-4-18,55.0,51.3,47.8,54.2,47.7,39.6,97,88,64,30.32,30.08,7,4,10,0.00
2013-4-19,66.9,60.0,52.0,64.7,58.3,51.2,98,94,84,30.08,29.66,11,6,22,0.03
2013-4-20,65.4,53.3,48.6,63.3,39.7,27.5,96,63,37,30.26,29.66,11,7,18,0.44
2013-4-21,48.9,43.2,38.6,33.9,29.0,24.3,70,57,44,30.59,30.26,11,7,16,0.00
2013-4-22,45.9,44.8,43.3,41.3,37.1,31.9,86,75,63,30.61,30.44,17,12,21,0.00
2013-4-23,50.2,45.2,41.3,44.3,40.9,37.5,95,85,78,30.44,30.08,16,10,22,0.01
2013-4-24,58.8,50.0,41.1,52.3,46.1,38.3,95,86,71,30.08,29.83,9,4,20,0.00
2013-4-25,58.0,51.9,46.5,53.3,40.3,31.5,94,66,38,30.25,29.87,12,5,16,0.03
2013-4-26,58.5,51.5,41.6,44.2,40.0,35.4,89,66,45,30.37,30.25,10,4,12,0.00
2013-4-27,59.6,52.4,47.2,42.1,38.3,33.1,76,59,40,30.40,30.28,9,4,11,0.00
2013-4-28,60.3,51.8,42.5,49.2,43.3,36.5,90,74,42,30.31,30.20,8,3,11,0.00
2013-4-29,53.9,52.3,50.5,50.6,49.4,48.5,94,90,83,30.21,30.14,9,4,8,0.22
2013-4-30,54.6,52.3,49.5,49.8,47.5,44.3,93,84,73,30.30,30.15,10,6,13,0.00
2013-5-1,52.1,50.0,47.3,48.0,45.8,43.5,95,86,73,30.45,30.29,11,5,15,0.00
2013-5-2,58.8,52.8,46.5,48.3,46.1,43.4,94,79,60,30.44,30.31,7,4,9,0.00
2013-5-3,52.3,50.8,49.1,49.2,44.9,40.7,90,80,68,30.44,30.33,14,8,20,0.00
2013-5-4,53.3,49.9,45.5,48.0,45.2,42.1,94,84,76,30.34,30.24,11,6,14,0.00
2013-5-5,50.6,48.5,47.1,45.6,42.9,40.5,90,81,74,30.27,30.20,11,8,17,0.00
2013-5-6,52.2,49.5,48.0,49.6,47.3,45.5,97,92,85,30.24,30.14,10,6,12,0.00
2013-5-7,55.7,51.8,48.8,55.1,51.2,47.8,98,98,96,30.14,30.05,11,6,12,0.11
2013-5-8,62.0,57.9,55.8,61.4,56.5,53.3,99,95,84,30.06,29.94,13,6,20,1.46
2013-5-9,69.2,59.2,54.8,60.0,56.2,53.9,98,90,64,29.97,29.87,8,2,9,0.30
2013-5-10,70.9,63.2,56.4,61.6,58.4,55.3,96,85,66,29.98,29.86,8,3,13,0.00
2013-5-11,66.5,62.8,60.0,64.4,60.8,57.2,98,93,77,29.88,29.68,8,3,14,0.36
2013-5-12,66.7,60.9,52.5,63.7,47.0,30.9,98,65,31,29.93,29.64,14,5,18,0.06
2013-5-13,57.1,50.7,41.5,37.1,33.1,27.1,79,52,35,30.07,29.93,11,4,14,0.00
2013-5-14,60.7,49.6,39.6,46.3,35.9,27.7,86,61,33,30.11,30.01,10,5,13,0.00
2013-5-15,68.4,57.5,48.2,59.5,51.3,34.5,91,80,58,30.06,29.67,8,3,12,0.00
2013-5-16,71.1,64.9,56.2,62.0,55.3,47.9,96,73,44,29.82,29.67,6,2,8,0.09
2013-5-17,70.2,64.2,55.0,61.8,47.6,41.4,86,56,37,30.17,29.80,10,4,13,0.00
2013-5-18,60.5,57.1,53.1,55.6,53.6,49.5,93,88,82,30.29,30.17,6,2,8,0.04
2013-5-19,57.9,56.4,55.3,57.3,55.4,53.6,98,96,91,30.28,30.13,11,6,14,0.58
2013-5-20,71.1,63.1,56.8,67.3,61.6,56.1,99,95,82,30.14,29.95,7,2,8,0.05
2013-5-21,80.7,72.1,63.6,71.0,67.6,63.0,98,86,70,29.96,29.82,8,2,10,0.00
2013-5-22,76.5,69.0,61.0,71.6,65.7,59.3,97,90,74,29.90,29.81,7,2,9,0.00
2013-5-23,76.0,68.5,62.3,69.4,65.2,60.6,98,89,75,29.89,29.74,9,4,14,0.00
2013-5-24,68.3,57.6,45.2,65.2,55.5,43.3,98,93,83,29.94,29.67,13,6,19,0.26
2013-5-25,58.8,50.7,44.1,45.6,42.2,36.9,94,75,49,30.00,29.88,18,10,25,0.10
2013-5-26,68.7,57.6,46.2,42.7,39.2,35.5,77,52,31,30.18,29.97,14,6,22,0.00
2013-5-27,72.2,59.7,44.1,51.6,44.2,36.6,90,59,36,30.23,30.11,8,2,12,0.00
2013-5-28,66.2,58.0,52.3,58.6,53.9,47.1,98,87,62,30.20,30.09,6,1,10,0.62
2013-5-29,81.8,66.7,55.6,70.0,62.4,55.0,99,87,66,30.09,29.99,6,2,9,0.00
2013-5-30,86.0,74.9,68.9,71.3,67.2,62.3,98,78,55,30.11,30.04,7,2,11,0.00
2013-5-31,88.6,77.2,69.3,72.1,69.0,63.2,98,77,55,30.10,29.97,7,2,10,0.00
2013-6-1,85.4,76.1,68.8,71.4,68.2,63.9,90,77,56,30.01,29.89,8,3,13,0.00
2013-6-2,83.3,73.1,66.9,71.4,67.5,62.7,98,83,65,29.91,29.77,9,3,12,0.14
2013-6-3,72.3,68.4,62.4,70.8,66.9,61.2,98,95,84,29.84,29.76,8,2,10,0.69
2013-6-4,73.1,64.6,57.5,66.1,52.6,46.9,95,66,43,30.07,29.84,10,4,17,0.00
2013-6-5,64.1,61.4,56.3,59.0,53.3,46.5,97,75,56,30.18,30.07,9,4,13,0.00
2013-6-6,64.4,61.6,58.3,61.6,59.9,57.6,98,94,88,30.11,29.96,9,4,12,0.04
2013-6-7,68.4,63.2,60.9,68.1,62.6,59.9,99,98,95,29.97,29.52,10,4,16,4.63
2013-6-8,77.7,68.3,58.6,69.4,64.2,58.0,99,87,70,30.02,29.49,11,3,22,0.34
2013-6-9,75.2,69.1,62.1,67.7,62.3,56.9,94,80,59,30.15,30.02,7,2,9,0.00
2013-6-10,69.7,65.8,64.0,68.4,64.6,62.4,99,96,85,30.13,29.79,7,3,9,3.88
2013-6-11,82.8,74.6,66.3,69.9,67.9,63.5,99,81,61,29.79,29.61,6,2,9,0.01
2013-6-12,80.4,72.2,65.6,63.5,59.9,56.6,86,67,45,29.83,29.70,12,5,18,0.00
2013-6-13,69.9,66.5,60.1,69.0,62.5,57.4,98,87,69,29.82,29.36,15,5,17,0.86
2013-6-14,67.6,60.8,54.9,60.4,56.0,52.8,97,85,63,29.87,29.42,17,7,20,0.00
2013-6-15,80.0,69.4,59.6,64.2,58.1,55.3,91,69,44,29.98,29.86,9,4,12,0.00
2013-6-16,84.8,72.2,62.0,70.2,63.7,58.3,90,76,52,29.98,29.77,8,2,12,0.00
2013-6-17,87.4,74.1,66.0,70.9,67.4,64.3,97,81,53,29.90,29.80,10,2,13,0.13
2013-6-18,72.9,67.4,63.3,69.0,64.9,62.7,98,92,80,29.87,29.77,12,3,13,1.13
2013-6-19,70.2,66.4,61.3,65.0,58.1,53.0,98,76,55,30.14,29.83,12,6,17,0.00
2013-6-20,74.7,67.3,57.2,62.8,57.9,54.3,93,73,52,30.25,30.14,8,3,13,0.00
2013-6-21,73.5,67.3,58.2,62.1,58.7,55.6,92,75,59,30.30,30.23,8,3,12,0.00
2013-6-22,74.2,68.3,59.1,66.3,61.7,56.1,97,80,54,30.25,30.13,9,3,13,0.00
2013-6-23,81.5,72.5,63.4,72.4,66.6,57.2,98,82,70,30.19,30.06,9,2,11,0.06
2013-6-24,92.7,79.4,71.5,76.4,71.5,63.8,98,79,50,30.07,29.96,6,2,14,0.01
2013-6-25,92.0,80.3,69.1,75.2,70.2,65.4,94,73,51,29.98,29.81,3,1,8,0.00
2013-6-26,89.1,78.7,71.5,76.0,69.2,65.6,97,74,49,29.85,29.75,6,3,10,0.18
2013-6-27,79.9,74.6,71.0,74.0,71.9,69.8,98,92,81,29.80,29.58,9,4,12,0.02
2013-6-28,85.3,76.8,70.9,74.8,71.6,68.6,95,85,63,29.58,29.47,8,2,10,0.07
2013-6-29,81.0,73.1,66.9,73.7,69.8,65.1,98,90,71,29.69,29.48,9,2,11,0.05
2013-6-30,76.4,71.2,66.9,73.0,69.5,65.0,98,94,86,29.89,29.69,7,3,12,0.05
2013-7-1,80.1,72.0,68.5,76.1,70.5,67.6,99,95,85,30.03,29.88,8,3,13,0.08
2013-7-2,79.5,73.6,68.6,74.7,71.2,67.4,99,92,82,30.18,30.03,7,3,10,0.00
2013-7-3,80.5,74.8,71.2,76.3,72.0,68.7,98,91,77,30.24,30.15,7,2,10,2.35
2013-7-4,84.3,78.4,73.4,77.3,74.3,72.0,98,88,77,30.25,30.15,7,2,11,0.00
2013-7-5,91.8,80.4,72.7,77.3,73.8,70.8,95,81,56,30.21,30.08,7,2,9,0.00
2013-7-6,94.6,84.2,75.2,77.8,74.9,72.6,94,75,52,30.14,30.01,4,2,7,0.00
2013-7-7,94.2,83.9,75.8,76.7,74.5,70.6,91,74,54,30.06,29.91,8,2,9,0.00
2013-7-8,88.9,78.1,72.6,72.6,70.5,68.2,91,78,58,30.03,29.98,3,2,5,0.29
2013-7-9,88.1,77.0,70.7,76.7,71.9,67.5,95,85,60,30.06,29.97,8,1,9,0.46
2013-7-10,88.7,79.2,69.3,78.4,74.1,67.8,98,85,63,30.01,29.81,6,2,7,0.65
2013-7-11,83.5,77.1,72.1,75.7,73.1,69.5,96,88,68,29.88,29.80,6,1,8,0.13
2013-7-12,77.4,72.5,69.3,70.8,68.4,65.0,97,87,71,30.03,29.88,13,8,23,0.29
2013-7-13,79.0,74.1,70.2,76.2,72.6,69.6,98,95,88,30.27,30.03,8,3,12,0.00
2013-7-14,86.1,79.4,74.1,76.8,74.7,73.0,97,86,69,30.32,30.23,8,2,11,0.00
2013-7-15,93.3,83.1,74.8,77.6,74.8,72.0,95,77,56,30.24,30.10,7,2,9,0.00
2013-7-16,89.3,83.6,77.5,75.3,71.2,66.8,84,68,48,30.16,30.10,8,3,11,0.00
2013-7-17,86.8,82.1,74.8,75.6,72.7,70.2,90,74,61,30.16,30.06,7,3,9,0.00
2013-7-18,92.0,85.0,77.4,80.9,76.4,70.2,85,76,64,30.06,29.94,7,2,9,0.00
2013-7-19,97.4,88.3,80.3,81.2,78.3,74.9,91,74,49,29.96,29.79,6,2,10,0.00
2013-7-20,95.0,85.9,79.0,78.5,75.4,72.9,85,72,51,29.82,29.71,4,2,8,0.00
2013-7-21,79.7,76.6,74.2,74.3,72.2,69.9,94,87,75,29.92,29.81,11,3,14,0.03
2013-7-22,78.5,76.4,75.0,76.7,75.2,73.9,98,96,93,29.92,29.76,9,4,10,0.13
2013-7-23,86.7,79.2,72.6,78.3,75.0,71.5,98,87,72,29.77,29.55,4,2,8,0.55
2013-7-24,83.0,77.5,72.7,73.2,69.1,61.3,93,76,63,29.87,29.60,10,4,12,0.00
2013-7-25,72.8,66.8,64.7,62.5,60.1,57.6,90,79,64,30.00,29.88,14,10,17,0.01
2013-7-26,77.2,70.5,65.0,69.6,64.6,60.9,90,82,70,30.04,29.95,9,5,13,0.00
2013-7-27,78.7,72.5,65.1,71.5,67.9,63.0,95,86,71,30.05,29.94,9,3,12,0.00
2013-7-28,78.1,72.3,66.5,73.3,69.9,65.6,98,92,83,29.97,29.90,8,3,11,0.30
2013-7-29,83.4,73.6,67.5,72.6,67.1,59.0,98,82,47,30.09,29.92,8,3,11,0.20
2013-7-30,81.0,72.6,63.0,63.3,60.1,57.9,85,66,49,30.15,30.08,7,3,11,0.00
2013-7-31,77.4,72.3,64.9,66.8,62.8,58.9,82,73,56,30.14,30.02,8,3,10,0.00
2013-8-1,74.6,71.5,69.4,70.3,67.4,63.4,97,87,75,30.02,29.81,12,2,12,0.64
2013-8-2,84.2,75.2,68.5,70.8,67.2,63.3,97,78,52,29.91,29.78,6,2,10,0.00
2013-8-3,79.6,72.6,68.3,69.9,67.4,65.6,92,84,67,29.92,29.84,4,1,6,0.06
2013-8-4,78.8,72.1,63.8,65.5,61.0,55.9,96,70,48,29.95,29.83,10,4,14,0.00
2013-8-5,75.8,68.3,60.9,63.3,56.0,50.3,82,66,42,30.03,29.95,7,4,12,0.00
2013-8-6,75.9,70.3,61.5,64.7,60.7,55.5,85,72,59,30.10,30.02,8,3,11,0.00
2013-8-7,76.7,72.8,70.3,70.2,67.5,64.3,92,84,77,30.13,30.05,7,4,11,0.00
2013-8-8,80.7,74.3,71.0,75.8,72.0,69.7,97,93,82,30.05,30.00,13,3,16,2.66
2013-8-9,83.6,77.0,72.3,78.3,74.6,70.5,97,92,80,30.01,29.80,5,2,8,0.09
2013-8-10,83.0,76.9,72.3,75.3,69.0,63.8,97,78,58,30.02,29.84,7,2,8,0.00
2013-8-11,75.3,71.3,65.7,69.7,63.6,58.7,93,77,62,30.11,30.01,7,3,10,0.00
2013-8-12,77.4,72.8,68.8,71.6,69.4,66.7,96,89,78,30.02,29.91,8,2,8,0.04
2013-8-13,74.5,72.0,69.1,73.9,70.4,68.0,98,95,86,29.91,29.69,10,3,14,1.82
2013-8-14,74.1,68.2,62.0,70.0,57.1,50.6,95,69,50,30.02,29.71,12,6,19,0.01
2013-8-15,72.8,66.0,58.1,59.4,55.5,52.0,82,70,55,30.13,30.02,8,4,9,0.00
2013-8-16,74.6,68.2,59.7,62.7,58.6,54.6,87,72,51,30.19,30.10,8,2,9,0.00
2013-8-17,75.0,68.5,60.6,65.0,60.7,57.7,91,77,56,30.25,30.19,6,2,8,0.00
2013-8-18,72.8,69.4,64.9,64.8,62.0,55.4,91,78,60,30.24,30.10,9,4,12,0.00
2013-8-19,77.5,70.0,61.8,66.6,62.3,56.7,92,78,57,30.13,30.02,5,1,6,0.00
2013-8-20,81.4,73.8,65.2,72.0,68.0,63.7,96,83,68,30.11,30.04,8,2,9,0.00
2013-8-21,85.1,76.6,69.8,74.9,70.6,64.4,93,82,52,30.16,30.05,7,2,9,0.00
2013-8-22,81.5,74.8,71.4,74.9,71.0,68.9,95,88,77,30.06,29.86,9,1,12,0.35
2013-8-23,78.2,73.7,69.6,69.6,65.0,58.0,95,76,50,30.06,29.85,8,4,14,0.00
2013-8-24,71.5,68.6,61.7,67.1,61.1,57.7,94,77,64,30.33,30.06,10,5,13,0.26
2013-8-25,78.9,68.9,59.3,64.0,58.4,54.0,96,71,46,30.39,30.24,8,2,9,0.00
2013-8-26,84.9,73.8,64.7,67.7,63.4,54.6,84,71,52,30.24,29.91,3,2,8,0.00
2013-8-27,85.7,77.1,70.6,72.0,69.2,67.5,93,78,56,29.91,29.81,11,4,13,0.04
2013-8-28,79.1,74.3,69.3,73.9,70.7,67.5,96,89,75,29.88,29.82,5,1,6,0.00
2013-8-29,73.9,71.8,69.9,71.6,68.5,66.2,97,89,80,30.02,29.84,11,6,14,0.00
2013-8-30,83.9,75.2,69.3,71.8,68.8,64.9,91,81,64,30.01,29.86,5,2,8,0.00
2013-8-31,86.9,77.3,69.5,76.0,72.2,67.9,95,85,68,29.88,29.78,6,2,12,0.00
2013-9-1,83.7,76.1,71.5,76.3,73.5,70.6,98,92,76,29.84,29.78,7,2,9,0.35
2013-9-2,81.1,73.8,69.9,76.0,72.6,69.0,98,96,83,29.78,29.69,4,1,6,0.15
2013-9-3,81.0,74.4,68.5,75.1,68.7,60.4,99,84,57,29.86,29.70,8,3,11,0.00
2013-9-4,80.3,70.8,62.4,61.3,59.8,56.9,89,70,48,29.99,29.86,8,3,10,0.00
2013-9-5,76.5,70.0,61.6,64.3,58.5,48.8,89,68,43,30.11,29.93,9,3,13,0.00
2013-9-6,66.8,62.1,55.3,53.4,50.5,47.0,87,66,49,30.23,30.11,10,5,14,0.00
2013-9-7,73.7,64.9,52.8,60.1,54.1,48.0,87,69,42,30.12,29.90,9,2,11,0.00
2013-9-8,80.9,72.3,65.0,68.9,61.4,50.7,91,70,49,30.05,29.80,11,4,15,0.00
2013-9-9,70.4,67.6,65.4,63.2,56.0,50.2,82,67,55,30.22,30.04,10,6,13,0.00
2013-9-10,83.3,75.7,69.1,74.9,69.8,63.0,91,82,71,30.17,30.04,7,2,9,0.00
2013-9-11,87.9,79.6,73.0,77.1,73.3,71.2,94,82,65,30.11,29.98,7,2,10,0.00
2013-9-12,84.8,76.2,71.4,75.2,71.4,68.6,93,85,71,29.99,29.68,7,2,11,0.20
2013-9-13,76.7,69.6,60.7,69.1,62.7,52.1,97,80,56,29.83,29.62,11,4,15,0.10
2013-9-14,67.2,59.0,52.9,52.6,50.3,47.2,87,73,56,30.11,29.83,9,5,13,0.00
2013-9-15,71.7,60.1,48.4,58.8,51.4,45.6,90,74,44,30.21,30.07,6,3,12,0.00
2013-9-16,69.4,63.3,60.0,61.8,58.4,53.6,92,84,68,30.18,30.02,8,2,8,0.05
2013-9-17,61.4,55.6,49.1,53.7,44.8,40.8,89,67,53,30.41,30.18,13,7,20,0.00
2013-9-18,65.3,57.1,47.3,54.2,49.2,44.5,92,76,57,30.33,30.18,8,3,11,0.00
2013-9-19,71.1,61.1,51.2,58.8,54.3,49.2,94,79,53,30.19,30.07,9,2,12,0.00
2013-9-20,72.1,63.9,55.3,63.8,58.9,53.3,94,84,67,30.08,29.99,9,2,11,0.00
2013-9-21,74.6,66.0,55.0,68.8,63.0,53.9,97,90,66,30.01,29.67,8,3,14,0.23
2013-9-22,69.3,64.3,55.1,68.1,55.4,46.6,97,75,51,29.89,29.64,11,6,14,0.47
2013-9-23,65.5,56.4,47.8,49.5,45.7,43.1,84,68,51,30.02,29.89,9,5,16,0.00
2013-9-24,70.3,57.4,46.5,53.2,47.9,43.4,90,72,50,30.04,29.87,9,4,11,0.00
2013-9-25,66.3,59.8,51.4,57.0,52.4,46.8,94,77,63,29.94,29.87,9,3,13,0.00
2013-9-26,66.8,60.5,52.6,61.3,56.7,51.1,96,88,75,30.07,29.92,11,4,15,0.00
2013-9-27,64.3,61.8,54.6,58.1,55.3,52.5,94,80,68,30.24,30.07,10,5,13,0.00
2013-9-28,67.3,64.3,60.0,58.9,57.1,55.3,87,78,67,30.30,30.20,10,6,15,0.00
2013-9-29,64.4,62.1,55.1,59.1,55.3,51.2,96,79,66,30.20,30.05,9,5,13,0.00
2013-9-30,66.2,60.0,54.2,59.0,55.4,51.5,95,85,71,30.06,29.97,8,4,13,0.00
2013-10-1,74.4,64.7,55.8,64.1,58.6,53.8,94,82,61,30.00,29.89,6,2,8,0.00
2013-10-2,82.7,71.1,61.0,65.1,61.9,57.9,91,74,52,29.99,29.90,8,2,12,0.00
2013-10-3,73.4,68.6,62.5,63.8,60.3,55.3,91,75,54,30.10,29.99,6,2,7,0.00
2013-10-4,81.2,70.9,62.4,69.2,65.2,59.0,96,83,62,30.05,29.96,7,1,9,0.00
2013-10-5,71.1,66.7,64.5,66.3,64.5,63.3,97,93,82,30.07,29.99,8,4,11,0.01
2013-10-6,69.1,67.2,64.8,68.4,66.6,63.9,98,98,96,30.07,30.00,6,4,8,0.00
2013-10-7,75.6,68.6,60.9,71.1,66.3,56.7,98,93,83,30.00,29.79,10,4,19,0.15
2013-10-8,64.9,60.4,53.6,56.0,49.5,45.9,85,68,52,30.27,29.98,10,6,15,0.00
2013-10-9,63.1,61.0,60.0,55.5,52.4,46.8,79,73,59,30.34,30.23,25,13,25,0.00
2013-10-10,64.2,61.1,57.7,61.1,58.1,53.2,96,90,77,30.23,30.01,29,14,29,0.37
2013-10-11,65.4,63.3,62.0,62.1,60.9,60.0,96,92,86,30.04,29.94,17,14,23,0.46
2013-10-12,65.1,63.1,61.7,60.7,57.5,53.1,90,82,72,30.23,30.01,18,14,27,0.00
2013-10-13,61.6,60.2,59.0,57.7,53.9,51.3,87,80,75,30.34,30.22,16,13,22,0.00
2013-10-14,59.9,58.0,51.6,53.4,52.1,49.6,93,81,75,30.33,30.24,10,5,12,0.00
2013-10-15,62.7,58.4,50.8,58.7,53.4,49.1,97,84,65,30.24,30.08,9,5,12,0.00
2013-10-16,62.5,61.5,60.3,60.3,59.2,58.1,95,92,87,30.08,29.91,7,4,9,0.00
2013-10-17,69.0,63.6,60.5,63.9,61.6,59.1,96,93,82,29.91,29.69,7,2,10,0.00
2013-10-18,66.8,60.8,53.6,63.8,50.0,44.4,95,68,50,29.98,29.68,11,4,15,0.03
2013-10-19,63.4,56.4,46.5,57.6,50.2,42.5,94,80,68,29.98,29.75,6,1,8,0.03
2013-10-20,61.7,54.2,48.2,57.1,43.7,37.9,94,69,44,30.06,29.75,10,4,12,0.00
2013-10-21,65.2,55.2,43.8,50.7,44.4,38.6,88,68,40,30.14,29.98,7,2,12,0.00
2013-10-22,69.0,57.4,50.1,53.5,49.0,41.1,94,75,51,29.98,29.75,7,2,12,0.00
2013-10-23,54.7,50.2,43.7,49.2,43.2,38.7,88,77,64,29.80,29.58,12,5,18,0.14
2013-10-24,52.7,44.9,38.9,38.8,34.4,29.4,88,68,44,30.02,29.76,8,3,11,0.00
2013-10-25,53.4,44.4,38.0,37.0,33.7,31.0,79,67,47,30.24,30.02,11,4,16,0.00
2013-10-26,56.5,46.3,35.0,41.5,35.1,31.1,87,67,41,30.23,29.90,6,2,13,0.00
2013-10-27,57.5,49.9,41.9,38.2,36.1,34.0,76,60,44,30.12,29.86,10,3,14,0.00
2013-10-28,62.2,48.7,37.1,44.4,37.4,31.4,86,67,45,30.28,30.11,5,1,6,0.00
2013-10-29,55.5,51.9,45.7,47.2,43.5,40.5,87,73,60,30.38,30.28,11,7,16,0.00
2013-10-30,57.4,50.4,42.8,55.3,48.2,40.9,95,92,86,30.33,30.17,1,0,2,0.03
2013-10-31,65.6,60.0,52.2,62.0,57.4,50.8,97,91,82,30.22,29.82,7,3,15,0.02
2013-11-1,70.0,63.2,59.0,64.1,60.3,57.8,97,90,78,29.81,29.57,8,3,14,0.20
2013-11-2,61.6,58.2,53.2,58.3,53.5,43.6,98,85,60,29.77,29.61,6,2,8,0.01
2013-11-3,54.7,47.2,35.5,44.2,37.5,25.6,86,69,51,30.41,29.76,11,6,18,0.00
2013-11-4,48.8,41.3,34.6,38.6,30.0,23.8,70,64,56,30.62,30.42,12,7,18,0.00
2013-11-5,54.3,51.6,48.3,46.5,43.0,38.0,89,72,66,30.62,30.46,9,5,11,0.00
2013-11-6,60.4,53.1,41.0,56.7,48.9,39.4,96,86,72,30.47,30.07,8,3,12,0.00
2013-11-7,63.8,56.2,41.1,60.4,52.7,35.1,96,88,70,30.06,29.75,12,4,18,0.10
2013-11-8,49.3,43.2,37.4,37.5,32.2,29.2,81,66,47,30.23,29.94,12,4,20,0.00
2013-11-9,52.1,43.2,34.1,38.5,31.4,26.9,81,64,44,30.29,30.00,5,2,9,0.00
2013-11-10,61.2,51.0,44.0,39.5,34.9,29.1,73,55,39,30.06,29.81,13,5,16,0.00
2013-11-11,56.2,48.3,39.9,37.8,32.3,27.7,65,54,40,30.21,29.97,9,4,14,0.00
2013-11-12,50.6,39.4,30.6,39.2,28.8,18.4,90,66,53,30.28,29.92,17,7,22,0.00
2013-11-13,39.4,32.4,27.2,20.9,18.6,14.4,70,58,36,30.36,30.27,11,5,16,0.00
2013-11-14,54.6,41.4,29.5,27.3,20.3,14.5,70,47,21,30.29,30.17,7,3,13,0.00
2013-11-15,57.1,44.6,35.7,39.9,34.5,27.3,84,68,46,30.25,30.16,2,1,5,0.00
2013-11-16,53.2,47.1,42.5,49.4,43.0,34.8,95,86,71,30.33,30.22,4,1,6,0.06
2013-11-17,60.8,55.3,48.5,59.7,54.1,47.0,98,96,94,30.25,29.79,4,2,7,0.00
2013-11-18,66.4,59.1,52.0,59.2,44.6,29.9,98,63,29,29.78,29.62,10,4,14,0.20
2013-11-19,52.0,44.4,34.6,31.2,28.1,24.0,67,53,43,30.33,29.78,15,8,25,0.00
2013-11-20,43.5,39.0,32.7,30.5,24.9,20.9,73,57,42,30.57,30.33,13,7,18,0.00
2013-11-21,51.1,47.8,39.3,44.6,39.1,30.7,85,72,59,30.57,30.38,8,4,11,0.00
2013-11-22,57.9,52.6,47.7,52.6,48.8,43.4,92,87,78,30.38,29.90,4,1,8,0.02
2013-11-23,53.3,43.6,32.2,51.0,30.2,20.6,92,60,42,30.01,29.90,16,7,20,0.00
2013-11-24,32.2,26.1,23.0,20.6,6.2,2.8,62,42,35,30.40,30.00,19,11,28,0.00
2013-11-25,36.4,28.1,20.4,18.9,13.5,6.6,71,54,39,30.50,30.34,7,3,10,0.00
2013-11-26,53.6,40.5,30.9,52.4,32.4,19.0,96,74,49,30.35,29.72,16,4,19,0.56
2013-11-27,60.3,47.2,34.9,59.7,45.0,23.0,98,92,61,29.76,29.31,17,9,21,0.85
2013-11-28,36.2,32.1,28.6,25.1,18.8,13.6,70,58,41,30.47,29.76,15,6,18,0.00
2013-11-29,39.6,33.0,27.8,24.2,22.1,20.1,79,65,49,30.70,30.46,7,3,9,0.00
2013-11-30,45.7,36.4,28.3,41.7,28.2,18.3,86,72,63,30.71,30.33,11,5,13,0.00
2013-12-1,51.1,42.1,34.6,40.9,35.4,30.8,88,78,55,30.33,30.00,6,2,8,0.00
2013-12-2,47.6,41.4,37.3,39.4,35.5,31.3,96,80,64,30.00,29.86,5,1,7,0.00
2013-12-3,51.2,43.4,37.6,42.4,39.8,35.8,96,87,65,29.99,29.85,5,2,7,0.00
2013-12-4,50.1,44.6,37.5,47.9,41.7,35.1,97,90,82,30.11,29.99,3,1,4,0.00
2013-12-5,58.9,52.3,48.3,56.0,51.1,47.2,97,96,89,30.10,29.93,6,1,9,0.01
2013-12-6,55.8,48.1,37.5,55.2,47.0,35.8,98,96,92,30.11,29.87,13,5,20,0.43
2013-12-7,40.5,36.6,32.1,36.0,31.1,23.8,95,81,64,30.49,30.06,14,6,16,0.07
2013-12-8,40.5,31.8,27.1,39.2,26.9,18.9,96,82,65,30.57,30.30,14,6,18,0.25
2013-12-9,46.7,41.0,33.5,45.9,39.9,32.5,97,96,93,30.31,29.95,16,6,19,0.48
2013-12-10,35.5,32.3,26.3,33.1,30.4,24.3,97,93,87,30.15,29.85,7,2,11,0.05
2013-12-11,33.7,28.1,23.4,23.8,21.0,18.1,91,75,56,30.35,30.15,5,2,12,0.00
2013-12-12,27.5,24.0,19.7,21.2,13.3,7.3,83,64,45,30.35,30.19,11,4,14,0.00
2013-12-13,36.9,27.7,18.2,22.5,16.7,10.9,78,64,47,30.32,30.14,7,2,11,0.00
2013-12-14,50.3,37.4,28.9,49.8,33.6,20.3,98,86,67,30.43,29.67,18,11,26,0.71
2013-12-15,53.4,39.0,31.2,52.8,34.9,23.6,98,86,66,29.87,29.45,16,6,18,0.28
2013-12-16,32.1,27.7,21.4,24.9,15.3,10.2,78,60,45,30.23,29.85,13,4,17,0.00
2013-12-17,45.1,33.2,24.6,43.2,29.1,13.8,96,85,60,30.22,29.89,10,4,12,0.12
2013-12-18,37.6,30.0,24.2,25.9,22.9,21.2,92,75,54,30.19,29.89,11,5,16,0.00
2013-12-19,48.7,38.2,25.7,33.8,28.2,21.1,85,68,48,30.20,30.03,4,1,6,0.00
2013-12-20,55.0,46.9,38.4,46.1,36.9,32.5,93,70,49,30.09,29.97,4,1,9,0.00
2013-12-21,60.6,52.8,45.0,55.4,48.8,42.7,95,86,73,30.01,29.89,4,1,7,0.00
2013-12-22,68.6,58.2,51.0,65.2,56.0,50.0,98,92,83,29.96,29.83,9,3,18,0.04
2013-12-23,59.0,53.0,42.5,58.0,51.6,36.4,98,95,79,30.13,29.87,12,3,16,0.47
2013-12-24,42.5,36.4,28.6,36.3,26.0,14.0,79,66,52,30.34,30.07,12,7,15,0.00
2013-12-25,30.5,26.0,20.1,22.3,14.1,9.2,73,61,46,30.51,30.34,12,5,16,0.00
2013-12-26,40.4,31.7,26.1,28.4,24.2,20.4,82,74,59,30.41,30.15,7,2,8,0.00
2013-12-27,43.7,32.8,25.1,26.8,23.2,18.0,88,70,40,30.37,30.26,7,1,10,0.00
2013-12-28,57.8,42.7,28.4,32.2,28.6,23.3,88,60,36,30.29,30.07,5,2,10,0.00
2013-12-29,57.2,44.8,41.0,56.5,39.8,30.1,98,83,60,30.07,29.37,11,4,17,1.42
2013-12-30,45.8,38.6,25.4,40.9,32.1,13.8,94,78,58,30.17,29.69,11,5,17,0.00
2013-12-31,37.7,29.2,23.2,27.1,17.7,13.2,73,62,52,30.29,30.06,9,5,15,0.00
2014-1-1,38.9,31.6,23.1,33.7,21.7,11.9,84,67,49,30.41,30.20,11,3,17,0.00
2014-1-2,41.0,33.5,24.9,38.3,31.5,23.7,96,92,84,30.20,29.58,17,13,24,0.00